Time;durP1;ratioP1;P1;durP2;ratioP2;P2;SDS_P1;SDS_P2;PMS_P1;PMS_P2;Temp;Humidity;BMP_temperature;BMP_pressure;BME280_temperature;BME280_humidity;BME280_pressure;Samples;Min_cycle;Max_cycle;Signal;HPM_P1;HPM_P2
2022/04/25 00:01:41;;;;;;;3.33;1.70;;;;;;;;;;5100432;28;20024;-75
2022/04/25 00:04:07;;;;;;;1.73;1.30;;;;;;;;;;5097111;28;20030;-74
2022/04/25 00:06:32;;;;;;;1.85;1.38;;;;;;;;;;5092901;28;20024;-76
2022/04/25 00:08:57;;;;;;;2.78;1.63;;;;;;;;;;5093763;28;20024;-76
2022/04/25 00:11:23;;;;;;;2.20;1.48;;;;;;;;;;5093037;28;20054;-75
2022/04/25 00:13:48;;;;;;;2.40;1.50;;;;;;;;;;5093597;28;20051;-76
2022/04/25 00:16:13;;;;;;;2.30;1.48;;;;;;;;;;5093898;28;20285;-76
2022/04/25 00:18:39;;;;;;;1.58;1.30;;;;;;;;;;5093248;28;20020;-74
2022/04/25 00:21:04;;;;;;;1.80;1.30;;;;;;;;;;5094033;28;20020;-75
2022/04/25 00:23:29;;;;;;;3.20;1.50;;;;;;;;;;5093955;28;20020;-75
2022/04/25 00:25:55;;;;;;;1.95;1.30;;;;;;;;;;5093876;28;20028;-75
2022/04/25 00:28:20;;;;;;;2.53;1.40;;;;;;;;;;5093051;28;20047;-77
2022/04/25 00:30:49;;;;;;;1.95;1.55;;;;;;;;;;5093059;28;20016;-75
2022/04/25 00:33:15;;;;;;;2.65;1.60;;;;;;;;;;5093407;28;20103;-75
2022/04/25 00:35:40;;;;;;;2.58;1.40;;;;;;;;;;5094852;28;20179;-74
2022/04/25 00:38:05;;;;;;;1.73;1.40;;;;;;;;;;5101480;28;20028;-74
2022/04/25 00:40:30;;;;;;;1.52;1.30;;;;;;;;;;5093122;28;20537;-76
2022/04/25 00:42:56;;;;;;;3.28;1.40;;;;;;;;;;5092852;28;20092;-76
2022/04/25 00:45:21;;;;;;;1.45;1.17;;;;;;;;;;5092996;28;20031;-75
2022/04/25 00:47:46;;;;;;;1.80;1.25;;;;;;;;;;5092692;28;20035;-76
2022/04/25 00:50:13;;;;;;;1.70;1.38;;;;;;;;;;5092658;28;20020;-75
2022/04/25 00:52:39;;;;;;;1.98;1.30;;;;;;;;;;5092305;28;20503;-75
2022/04/25 00:55:08;;;;;;;1.30;1.20;;;;;;;;;;5093227;28;20036;-75
2022/04/25 00:57:34;;;;;;;1.65;1.20;;;;;;;;;;5093971;28;20031;-76
2022/04/25 01:00:00;;;;;;;1.30;1.20;;;;;;;;;;5093074;28;20008;-77
2022/04/25 01:02:26;;;;;;;2.65;1.42;;;;;;;;;;5092255;28;20047;-75
2022/04/25 01:04:51;;;;;;;2.97;1.85;;;;;;;;;;5092498;28;20020;-77
2022/04/25 01:07:16;;;;;;;6.57;1.48;;;;;;;;;;5093541;28;20016;-75
2022/04/25 01:09:42;;;;;;;2.25;1.52;;;;;;;;;;5095642;28;20026;-77
2022/04/25 01:12:07;;;;;;;2.45;1.45;;;;;;;;;;5099778;28;20016;-79
2022/04/25 01:14:32;;;;;;;2.15;1.40;;;;;;;;;;5094126;28;20016;-76
2022/04/25 01:17:00;;;;;;;2.78;1.30;;;;;;;;;;5091398;28;20050;-75
2022/04/25 01:19:25;;;;;;;1.45;1.30;;;;;;;;;;5090957;28;20475;-76
2022/04/25 01:21:55;;;;;;;2.45;1.30;;;;;;;;;;5091516;28;20051;-74
2022/04/25 01:27:16;;;;;;;3.40;1.52;;;;;;;;;;5092753;28;20123;-76
2022/04/25 01:29:46;;;;;;;1.48;1.20;;;;;;;;;;5092172;28;20043;-75
2022/04/25 01:32:12;;;;;;;2.17;1.30;;;;;;;;;;5092105;28;20473;-75
2022/04/25 01:34:37;;;;;;;2.00;1.30;;;;;;;;;;5092479;28;20031;-76
2022/04/25 01:37:05;;;;;;;1.38;1.10;;;;;;;;;;5092066;28;20552;-77
2022/04/25 01:39:30;;;;;;;1.80;1.25;;;;;;;;;;5092223;28;20072;-76
2022/04/25 01:41:55;;;;;;;2.35;1.45;;;;;;;;;;5091905;28;20024;-76
2022/04/25 01:44:20;;;;;;;1.70;1.33;;;;;;;;;;5092126;28;20019;-76
2022/04/25 01:46:46;;;;;;;1.40;1.13;;;;;;;;;;5093608;28;20499;-79
2022/04/25 01:49:11;;;;;;;1.42;1.30;;;;;;;;;;5100971;28;20678;-78
2022/04/25 01:51:38;;;;;;;2.40;1.52;;;;;;;;;;5091544;28;20483;-76
2022/04/25 01:54:04;;;;;;;2.97;1.33;;;;;;;;;;5108893;28;20051;-76
2022/04/25 01:56:29;;;;;;;2.03;1.30;;;;;;;;;;5112391;28;20066;-75
2022/04/25 01:58:54;;;;;;;2.38;1.25;;;;;;;;;;5110744;28;20008;-75
2022/04/25 02:01:20;;;;;;;2.28;1.42;;;;;;;;;;5101523;28;20380;-76
2022/04/25 02:03:47;;;;;;;2.08;1.25;;;;;;;;;;5090930;28;20027;-75
2022/04/25 02:06:12;;;;;;;2.40;1.23;;;;;;;;;;5089749;28;20026;-76
2022/04/25 02:08:38;;;;;;;2.22;1.30;;;;;;;;;;5090979;28;20102;-74
2022/04/25 02:13:53;;;;;;;3.53;1.30;;;;;;;;;;5090553;28;20118;-76
2022/04/25 02:16:19;;;;;;;4.82;1.38;;;;;;;;;;5091390;28;20032;-77
2022/04/25 02:18:45;;;;;;;1.95;1.30;;;;;;;;;;5092439;28;20016;-77
2022/04/25 02:21:10;;;;;;;2.23;1.27;;;;;;;;;;5092484;28;20068;-76
2022/04/25 02:23:36;;;;;;;1.23;1.10;;;;;;;;;;5090129;28;20310;-75
2022/04/25 02:26:01;;;;;;;2.78;1.40;;;;;;;;;;5091284;28;20111;-75
2022/04/25 02:28:27;;;;;;;1.98;1.30;;;;;;;;;;5092863;28;20120;-75
2022/04/25 02:30:53;;;;;;;4.90;2.20;;;;;;;;;;5099186;28;20047;-75
2022/04/25 02:33:18;;;;;;;1.92;1.40;;;;;;;;;;5090339;28;20061;-75
2022/04/25 02:35:43;;;;;;;1.50;1.20;;;;;;;;;;5108725;28;20031;-76
2022/04/25 02:38:09;;;;;;;2.70;1.15;;;;;;;;;;5109925;28;20548;-76
2022/04/25 02:40:34;;;;;;;1.45;1.10;;;;;;;;;;5111128;28;20016;-74
2022/04/25 02:42:59;;;;;;;1.20;1.10;;;;;;;;;;5110714;28;20047;-75
2022/04/25 02:45:25;;;;;;;1.88;1.20;;;;;;;;;;5111013;28;20019;-76
2022/04/25 02:47:50;;;;;;;1.55;1.20;;;;;;;;;;5110859;28;20180;-76
2022/04/25 02:50:16;;;;;;;1.40;1.30;;;;;;;;;;5111371;28;20064;-76
2022/04/25 02:52:41;;;;;;;2.42;1.25;;;;;;;;;;5097956;28;20119;-75
2022/04/25 02:55:07;;;;;;;1.83;1.30;;;;;;;;;;5090256;28;20020;-76
2022/04/25 02:57:33;;;;;;;6.70;1.85;;;;;;;;;;5090883;28;20271;-74
2022/04/25 02:59:58;;;;;;;1.75;1.30;;;;;;;;;;5105219;28;20011;-74
2022/04/25 03:02:24;;;;;;;1.17;1.08;;;;;;;;;;5110601;28;20015;-75
2022/04/25 03:04:49;;;;;;;1.50;1.20;;;;;;;;;;5095206;28;20069;-75
2022/04/25 03:07:14;;;;;;;1.65;1.27;;;;;;;;;;5090339;28;20008;-75
2022/04/25 03:09:39;;;;;;;3.70;1.20;;;;;;;;;;5089971;28;20128;-75
2022/04/25 03:12:05;;;;;;;1.88;1.30;;;;;;;;;;5089975;28;20061;-75
2022/04/25 03:14:30;;;;;;;1.30;1.20;;;;;;;;;;5089555;28;20035;-75
2022/04/25 03:16:55;;;;;;;1.20;1.10;;;;;;;;;;5090382;28;20034;-75
2022/04/25 03:19:21;;;;;;;2.45;1.25;;;;;;;;;;5106696;28;20069;-81
2022/04/25 03:21:46;;;;;;;1.50;1.20;;;;;;;;;;5114638;28;20072;-79
2022/04/25 03:24:12;;;;;;;1.85;1.23;;;;;;;;;;5116993;28;20021;-76
2022/04/25 03:26:37;;;;;;;1.17;1.08;;;;;;;;;;5112285;28;20022;-76
2022/04/25 03:29:02;;;;;;;1.87;1.30;;;;;;;;;;5110495;28;20451;-75
2022/04/25 03:31:27;;;;;;;1.63;1.20;;;;;;;;;;5110400;28;20594;-75
2022/04/25 03:33:53;;;;;;;2.78;1.60;;;;;;;;;;5096313;28;20083;-75
2022/04/25 03:36:18;;;;;;;1.33;1.15;;;;;;;;;;5089764;28;20035;-76
2022/04/25 03:38:43;;;;;;;1.70;1.23;;;;;;;;;;5089922;28;20613;-75
2022/04/25 03:41:08;;;;;;;1.52;1.25;;;;;;;;;;5089687;28;20746;-75
2022/04/25 03:43:34;;;;;;;1.38;1.20;;;;;;;;;;5089705;28;20121;-78
2022/04/25 03:46:00;;;;;;;2.50;1.60;;;;;;;;;;5090270;28;20032;-75
2022/04/25 03:48:25;;;;;;;2.22;1.55;;;;;;;;;;5089833;28;20020;-75
2022/04/25 03:50:50;;;;;;;1.20;1.10;;;;;;;;;;5090232;28;20020;-76
2022/04/25 03:53:16;;;;;;;1.73;1.30;;;;;;;;;;5089912;28;20035;-75
2022/04/25 03:58:25;;;;;;;2.35;1.20;;;;;;;;;;5090305;28;20574;-75
2022/04/25 04:00:50;;;;;;;1.38;1.10;;;;;;;;;;5090438;28;20098;-75
2022/04/25 04:03:17;;;;;;;1.20;1.10;;;;;;;;;;5090478;28;20026;-75
2022/04/25 04:05:42;;;;;;;3.53;1.20;;;;;;;;;;5092062;28;20064;-75
2022/04/25 04:08:08;;;;;;;1.25;1.10;;;;;;;;;;5089293;28;20457;-75
2022/04/25 04:10:34;;;;;;;1.60;1.38;;;;;;;;;;5092001;28;20128;-75
2022/04/25 04:13:00;;;;;;;2.50;1.30;;;;;;;;;;5091584;28;20052;-75
2022/04/25 04:15:25;;;;;;;4.40;1.30;;;;;;;;;;5091270;28;20115;-77
2022/04/25 04:17:51;;;;;;;3.03;1.20;;;;;;;;;;5094327;28;20055;-75
2022/04/25 04:20:16;;;;;;;2.65;1.30;;;;;;;;;;5109539;28;20008;-75
2022/04/25 04:22:41;;;;;;;2.20;1.42;;;;;;;;;;5109316;28;20023;-75
2022/04/25 04:25:08;;;;;;;1.67;1.30;;;;;;;;;;5089649;28;20059;-75
2022/04/25 04:27:34;;;;;;;2.15;1.33;;;;;;;;;;5090632;28;20044;-75
2022/04/25 04:30:00;;;;;;;1.85;1.33;;;;;;;;;;5093375;28;20060;-76
2022/04/25 04:32:29;;;;;;;1.42;1.33;;;;;;;;;;5092859;28;20039;-75
2022/04/25 04:34:54;;;;;;;1.83;1.40;;;;;;;;;;5095278;28;20020;-78
2022/04/25 04:37:19;;;;;;;1.67;1.38;;;;;;;;;;5102389;28;20019;-75
2022/04/25 04:39:44;;;;;;;2.17;1.23;;;;;;;;;;5101716;28;20024;-75
2022/04/25 04:42:11;;;;;;;1.27;1.10;;;;;;;;;;5101237;28;20057;-76
2022/04/25 04:44:36;;;;;;;2.45;1.40;;;;;;;;;;5102684;28;20259;-76
2022/04/25 04:47:02;;;;;;;2.08;1.70;;;;;;;;;;5102498;28;20071;-76
2022/04/25 04:49:28;;;;;;;1.52;1.30;;;;;;;;;;5101325;28;20043;-76
2022/04/25 04:51:53;;;;;;;3.80;1.30;;;;;;;;;;5103832;28;20037;-76
2022/04/25 04:54:18;;;;;;;1.40;1.20;;;;;;;;;;5100341;28;20089;-76
2022/04/25 04:56:45;;;;;;;2.22;1.38;;;;;;;;;;5101756;28;20038;-81
2022/04/25 04:59:10;;;;;;;4.05;1.40;;;;;;;;;;5103263;28;20484;-76
2022/04/25 05:01:35;;;;;;;2.33;1.50;;;;;;;;;;5097319;28;20023;-75
2022/04/25 05:04:01;;;;;;;2.20;1.30;;;;;;;;;;5101661;28;20263;-74
2022/04/25 05:06:27;;;;;;;4.28;1.70;;;;;;;;;;5104866;28;20016;-77
2022/04/25 05:08:53;;;;;;;5.00;1.85;;;;;;;;;;5099930;28;20433;-76
2022/04/25 05:11:18;;;;;;;5.47;2.42;;;;;;;;;;5107379;28;20016;-75
2022/04/25 05:13:44;;;;;;;2.10;1.50;;;;;;;;;;5103584;28;20012;-75
2022/04/25 05:16:09;;;;;;;2.45;1.83;;;;;;;;;;5102309;28;20477;-76
2022/04/25 05:18:34;;;;;;;2.22;1.48;;;;;;;;;;5099600;28;20039;-75
2022/04/25 05:21:03;;;;;;;4.60;1.50;;;;;;;;;;5103108;28;20637;-74
2022/04/25 05:23:28;;;;;;;2.58;1.60;;;;;;;;;;5102353;28;20035;-73
2022/04/25 05:25:54;;;;;;;2.53;1.40;;;;;;;;;;5098984;28;20036;-76
2022/04/25 05:28:20;;;;;;;3.55;1.73;;;;;;;;;;5106232;28;20450;-78
2022/04/25 05:30:46;;;;;;;3.20;1.85;;;;;;;;;;5104157;28;20047;-74
2022/04/25 05:33:12;;;;;;;1.83;1.40;;;;;;;;;;5103448;28;20133;-74
2022/04/25 05:35:44;;;;;;;7.88;2.28;;;;;;;;;;5107990;27;20008;-76
2022/04/25 05:38:10;;;;;;;2.85;1.60;;;;;;;;;;5102890;28;20024;-76
2022/04/25 05:40:36;;;;;;;2.97;1.60;;;;;;;;;;5103005;28;20004;-76
2022/04/25 05:43:02;;;;;;;2.67;1.30;;;;;;;;;;5101032;28;20084;-72
2022/04/25 05:45:28;;;;;;;2.40;1.60;;;;;;;;;;5099184;28;20046;-72
2022/04/25 05:47:56;;;;;;;1.83;1.40;;;;;;;;;;5091000;28;20101;-74
2022/04/25 05:53:06;;;;;;;3.42;1.90;;;;;;;;;;5091218;28;20023;-74
2022/04/25 05:55:31;;;;;;;4.43;1.70;;;;;;;;;;5090910;28;20032;-73
2022/04/25 05:57:58;;;;;;;5.63;1.40;;;;;;;;;;5091553;28;20028;-73
2022/04/25 06:00:24;;;;;;;2.15;1.40;;;;;;;;;;5090783;28;20057;-73
2022/04/25 06:02:49;;;;;;;3.63;1.40;;;;;;;;;;5090987;28;20019;-74
2022/04/25 06:05:15;;;;;;;3.08;1.70;;;;;;;;;;5090814;28;20516;-73
2022/04/25 06:07:41;;;;;;;3.25;1.60;;;;;;;;;;5091189;28;20028;-74
2022/04/25 06:10:07;;;;;;;2.83;1.50;;;;;;;;;;5091035;28;20016;-74
2022/04/25 06:12:32;;;;;;;1.73;1.30;;;;;;;;;;5092267;28;20028;-74
2022/04/25 06:14:58;;;;;;;2.50;1.50;;;;;;;;;;5090930;28;20030;-74
2022/04/25 06:17:23;;;;;;;2.33;1.63;;;;;;;;;;5096302;28;20315;-74
2022/04/25 06:19:51;;;;;;;3.95;1.52;;;;;;;;;;5101163;28;20400;-75
2022/04/25 06:22:17;;;;;;;2.60;1.40;;;;;;;;;;5107007;28;20024;-73
2022/04/25 06:24:43;;;;;;;3.08;1.70;;;;;;;;;;5111353;28;20034;-74
2022/04/25 06:27:09;;;;;;;7.30;3.05;;;;;;;;;;5111350;28;20072;-74
2022/04/25 06:29:34;;;;;;;3.22;1.48;;;;;;;;;;5100344;28;20092;-75
2022/04/25 06:32:02;;;;;;;4.82;1.50;;;;;;;;;;5091640;28;20016;-76
2022/04/25 06:34:28;;;;;;;3.13;1.50;;;;;;;;;;5096568;28;20051;-75
2022/04/25 06:36:53;;;;;;;1.92;1.33;;;;;;;;;;5104826;28;20444;-75
2022/04/25 06:39:18;;;;;;;2.60;1.40;;;;;;;;;;5097400;28;20007;-76
2022/04/25 06:41:43;;;;;;;1.70;1.42;;;;;;;;;;5100575;28;20255;-74
2022/04/25 06:44:08;;;;;;;2.33;1.40;;;;;;;;;;5089770;28;20031;-78
2022/04/25 06:46:34;;;;;;;1.42;1.23;;;;;;;;;;5098917;28;20352;-77
2022/04/25 06:51:42;;;;;;;2.42;1.50;;;;;;;;;;5103320;28;20541;-80
2022/04/25 06:54:08;;;;;;;3.37;1.97;;;;;;;;;;5099600;28;20008;-79
2022/04/25 06:56:35;;;;;;;3.42;1.63;;;;;;;;;;5100114;28;20284;-80
2022/04/25 06:59:00;;;;;;;3.22;1.70;;;;;;;;;;5098578;28;20008;-76
2022/04/25 07:01:25;;;;;;;3.03;1.70;;;;;;;;;;5095229;28;20397;-78
2022/04/25 07:03:50;;;;;;;2.10;1.57;;;;;;;;;;5094990;28;20253;-79
2022/04/25 07:06:16;;;;;;;2.75;1.55;;;;;;;;;;5097195;28;20317;-80
2022/04/25 07:08:41;;;;;;;3.75;1.80;;;;;;;;;;5098787;28;20016;-81
2022/04/25 07:11:06;;;;;;;3.80;1.87;;;;;;;;;;5098828;28;20071;-79
2022/04/25 07:13:31;;;;;;;4.50;1.88;;;;;;;;;;5098478;28;20325;-77
2022/04/25 07:15:57;;;;;;;6.63;2.37;;;;;;;;;;5098205;28;20031;-77
2022/04/25 07:18:22;;;;;;;4.25;1.88;;;;;;;;;;5098137;28;20270;-79
2022/04/25 07:20:47;;;;;;;3.07;1.80;;;;;;;;;;5100761;28;20027;-78
2022/04/25 07:28:49;;;;;;;7.35;2.05;;;;;;;;;;5095801;28;20127;-79
2022/04/25 07:31:15;;;;;;;4.30;1.83;;;;;;;;;;5101383;28;20095;-76
2022/04/25 07:33:43;;;;;;;5.85;2.05;;;;;;;;;;5093872;28;20107;-75
2022/04/25 07:36:08;;;;;;;4.68;1.80;;;;;;;;;;5096444;28;20028;-76
2022/04/25 07:38:33;;;;;;;6.97;1.80;;;;;;;;;;5099679;28;20468;-80
2022/04/25 07:41:00;;;;;;;5.63;1.93;;;;;;;;;;5098518;28;20089;-81
2022/04/25 07:43:25;;;;;;;4.88;1.90;;;;;;;;;;5099125;28;20802;-75
2022/04/25 07:45:51;;;;;;;3.85;2.10;;;;;;;;;;5106337;28;20011;-82
2022/04/25 07:48:16;;;;;;;4.22;1.70;;;;;;;;;;5105386;28;20020;-76
2022/04/25 07:50:45;;;;;;;3.20;1.52;;;;;;;;;;5104009;28;20125;-79
2022/04/25 07:53:10;;;;;;;2.92;1.60;;;;;;;;;;5096598;28;20027;-79
2022/04/25 07:55:35;;;;;;;3.63;1.90;;;;;;;;;;5097495;28;20020;-79
2022/04/25 07:58:03;;;;;;;2.33;1.57;;;;;;;;;;5098456;28;20396;-77
2022/04/25 08:00:29;;;;;;;2.50;1.77;;;;;;;;;;5099356;28;20249;-78
2022/04/25 08:02:54;;;;;;;2.35;1.75;;;;;;;;;;5098343;28;20028;-75
2022/04/25 08:05:19;;;;;;;2.83;1.60;;;;;;;;;;5104492;28;20027;-79
2022/04/25 08:07:44;;;;;;;1.70;1.33;;;;;;;;;;5101703;28;20051;-78
2022/04/25 08:10:10;;;;;;;1.50;1.30;;;;;;;;;;5102753;28;20268;-82
2022/04/25 08:18:06;;;;;;;2.10;1.48;;;;;;;;;;5094917;28;20047;-84
2022/04/25 08:20:36;;;;;;;3.28;1.80;;;;;;;;;;5098321;28;20504;-81
2022/04/25 08:23:02;;;;;;;2.72;1.60;;;;;;;;;;5093508;28;20682;-79
2022/04/25 08:25:30;;;;;;;2.40;1.45;;;;;;;;;;5093657;28;20028;-80
2022/04/25 08:27:55;;;;;;;2.13;1.50;;;;;;;;;;5094539;28;20020;-84
2022/04/25 08:30:21;;;;;;;1.55;1.30;;;;;;;;;;5095229;28;20020;-80
2022/04/25 08:32:47;;;;;;;2.25;1.80;;;;;;;;;;5095592;28;20058;-82
2022/04/25 08:35:13;;;;;;;2.72;1.50;;;;;;;;;;5095894;28;20031;-84
2022/04/25 08:37:39;;;;;;;2.00;1.40;;;;;;;;;;5097774;28;20515;-79
2022/04/25 08:40:04;;;;;;;3.60;1.60;;;;;;;;;;5097933;28;20020;-80
2022/04/25 08:42:31;;;;;;;2.08;1.42;;;;;;;;;;5095069;28;20108;-77
2022/04/25 08:44:57;;;;;;;3.92;1.50;;;;;;;;;;5101757;28;20020;-81
2022/04/25 08:47:26;;;;;;;1.92;1.50;;;;;;;;;;5104928;28;20350;-79
2022/04/25 08:49:51;;;;;;;3.25;1.45;;;;;;;;;;5092906;28;20087;-78
2022/04/25 08:52:17;;;;;;;1.98;1.30;;;;;;;;;;5095122;28;20110;-77
2022/04/25 08:54:43;;;;;;;3.15;1.70;;;;;;;;;;5094739;28;20023;-78
2022/04/25 08:57:09;;;;;;;2.92;1.65;;;;;;;;;;5095068;28;20514;-86
2022/04/25 08:59:34;;;;;;;1.83;1.35;;;;;;;;;;5096508;28;20020;-79
2022/04/25 09:01:59;;;;;;;2.00;1.40;;;;;;;;;;5095584;28;20094;-81
2022/04/25 09:04:24;;;;;;;1.57;1.30;;;;;;;;;;5095362;28;20095;-81
2022/04/25 09:06:55;;;;;;;2.13;1.48;;;;;;;;;;5095817;28;20252;-78
2022/04/25 09:09:20;;;;;;;1.85;1.42;;;;;;;;;;5094806;28;20530;-85
2022/04/25 09:14:30;;;;;;;1.58;1.27;;;;;;;;;;5094969;28;20111;-80
2022/04/25 09:16:55;;;;;;;2.05;1.35;;;;;;;;;;5093222;28;20116;-80
2022/04/25 09:19:21;;;;;;;1.77;1.35;;;;;;;;;;5094278;28;20504;-80
2022/04/25 09:21:46;;;;;;;3.03;1.55;;;;;;;;;;5110126;28;20023;-78
2022/04/25 09:24:21;;;;;;;1.67;1.30;;;;;;;;;;5105188;28;20027;-83
2022/04/25 09:26:46;;;;;;;;;;;;;;;;;;5096001;28;20016;-81
2022/04/25 09:29:11;;;;;;;3.13;1.40;;;;;;;;;;5095097;28;20062;-83
2022/04/25 09:31:46;;;;;;;2.73;1.50;;;;;;;;;;5095109;28;20046;-80
2022/04/25 09:34:15;;;;;;;1.58;1.30;;;;;;;;;;5098693;28;20264;-86
2022/04/25 09:36:47;;;;;;;2.53;1.48;;;;;;;;;;5096306;28;20068;-79
2022/04/25 09:39:30;;;;;;;4.25;2.40;;;;;;;;;;5098368;28;20065;-81
2022/04/25 09:41:56;;;;;;;1.92;1.50;;;;;;;;;;5096348;28;20020;-82
2022/04/25 09:44:22;;;;;;;2.92;1.58;;;;;;;;;;5096412;28;20016;-84
2022/04/25 09:46:47;;;;;;;1.65;1.23;;;;;;;;;;5097529;28;20042;-84
2022/04/25 09:49:18;;;;;;;1.35;1.20;;;;;;;;;;5101505;28;20059;-84
2022/04/25 09:51:58;;;;;;;2.83;2.00;;;;;;;;;;5099867;28;20020;-86
2022/04/25 09:54:24;;;;;;;2.45;1.70;;;;;;;;;;5098919;28;20020;-82
2022/04/25 09:56:51;;;;;;;3.35;1.95;;;;;;;;;;5111389;28;20044;-80
2022/04/25 09:59:16;;;;;;;3.53;1.90;;;;;;;;;;5113746;28;20041;-80
2022/04/25 10:01:43;;;;;;;2.97;1.90;;;;;;;;;;5114553;28;20027;-84
2022/04/25 10:04:27;;;;;;;2.17;1.50;;;;;;;;;;5110948;28;20240;-84
2022/04/25 10:06:52;;;;;;;2.63;1.90;;;;;;;;;;5096448;28;20111;-79
2022/04/25 10:09:19;;;;;;;2.22;1.52;;;;;;;;;;5100820;28;20043;-81
2022/04/25 10:11:44;;;;;;;2.28;1.67;;;;;;;;;;5096783;28;20024;-79
2022/04/25 10:14:10;;;;;;;2.33;1.73;;;;;;;;;;5098190;28;20030;-84
2022/04/25 10:16:35;;;;;;;2.80;1.67;;;;;;;;;;5097668;28;20042;-80
2022/04/25 10:19:00;;;;;;;2.33;1.70;;;;;;;;;;5099913;28;20028;-81
2022/04/25 10:21:29;;;;;;;2.25;1.52;;;;;;;;;;5102945;28;20039;-79
2022/04/25 10:23:56;;;;;;;3.25;1.63;;;;;;;;;;5114421;28;20085;-84
2022/04/25 10:26:25;;;;;;;2.80;1.88;;;;;;;;;;5114172;28;20092;-84
2022/04/25 10:29:02;;;;;;;4.28;2.78;;;;;;;;;;5123005;27;20040;-86
2022/04/25 10:31:28;;;;;;;2.58;1.83;;;;;;;;;;5122942;28;20011;-83
2022/04/25 10:33:55;;;;;;;2.65;1.88;;;;;;;;;;5115685;28;20016;-84
2022/04/25 10:36:36;;;;;;;2.53;1.70;;;;;;;;;;5112519;28;20024;-80
2022/04/25 10:39:17;;;;;;;2.60;1.60;;;;;;;;;;5118926;28;20110;-86
2022/04/25 10:44:44;;;;;;;4.53;2.33;;;;;;;;;;5118228;28;20073;-83
2022/04/25 10:47:16;;;;;;;2.95;2.03;;;;;;;;;;5118972;28;20053;-86
2022/04/25 10:49:46;;;;;;;2.65;1.90;;;;;;;;;;5118253;28;20102;-83
2022/04/25 10:52:30;;;;;;;2.58;1.80;;;;;;;;;;5117047;28;20131;-82
2022/04/25 10:55:13;;;;;;;2.20;1.70;;;;;;;;;;5117312;28;20049;-81
2022/04/25 10:57:57;;;;;;;2.67;1.80;;;;;;;;;;5117116;28;20115;-83
2022/04/25 11:00:44;;;;;;;2.22;1.67;;;;;;;;;;5117547;28;20031;-81
2022/04/25 11:03:15;;;;;;;3.22;2.10;;;;;;;;;;5119197;28;20012;-84
2022/04/25 11:05:44;;;;;;;5.45;2.00;;;;;;;;;;5117295;28;20030;-84
2022/04/25 11:08:18;;;;;;;2.53;1.70;;;;;;;;;;5111510;28;20550;-80
2022/04/25 11:10:44;;;;;;;2.20;1.70;;;;;;;;;;5105877;28;20023;-83
2022/04/25 11:13:12;;;;;;;2.35;1.67;;;;;;;;;;5102093;28;20077;-88
2022/04/25 11:15:40;;;;;;;2.90;1.80;;;;;;;;;;5096948;28;20745;-85
2022/04/25 11:21:08;;;;;;;2.30;1.70;;;;;;;;;;5097733;28;20127;-83
2022/04/25 11:23:33;;;;;;;2.72;1.65;;;;;;;;;;5099142;28;20089;-79
2022/04/25 11:26:04;;;;;;;2.13;1.70;;;;;;;;;;5096788;28;20020;-81
2022/04/25 11:28:30;;;;;;;1.98;1.42;;;;;;;;;;5099399;28;20280;-82
2022/04/25 11:31:13;;;;;;;2.47;1.77;;;;;;;;;;5098214;28;20074;-81
2022/04/25 11:33:45;;;;;;;2.38;1.73;;;;;;;;;;5099125;28;20038;-87
2022/04/25 11:36:11;;;;;;;3.35;1.85;;;;;;;;;;5099410;28;20473;-79
2022/04/25 11:41:21;;;;;;;2.60;1.52;;;;;;;;;;5106767;28;20039;-87
2022/04/25 11:43:47;;;;;;;2.72;1.60;;;;;;;;;;5109844;28;20016;-89
2022/04/25 11:46:12;;;;;;;3.60;1.30;;;;;;;;;;5117814;28;20028;-85
2022/04/25 11:48:37;;;;;;;2.63;1.70;;;;;;;;;;5116785;28;20284;-80
2022/04/25 11:51:03;;;;;;;3.10;1.77;;;;;;;;;;5105523;28;20269;-80
2022/04/25 11:53:29;;;;;;;1.80;1.40;;;;;;;;;;5108964;28;20055;-88
2022/04/25 11:55:55;;;;;;;3.78;1.80;;;;;;;;;;5124057;28;20028;-86
2022/04/25 11:58:27;;;;;;;3.17;1.53;;;;;;;;;;5113251;28;20011;-80
2022/04/25 12:00:53;;;;;;;2.05;1.70;;;;;;;;;;5121491;28;20252;-80
2022/04/25 12:03:20;;;;;;;2.38;1.63;;;;;;;;;;5120130;28;20027;-85
2022/04/25 12:05:45;;;;;;;2.88;1.73;;;;;;;;;;5120610;28;20028;-79
2022/04/25 12:16:27;;;;;;;2.55;1.63;;;;;;;;;;5141247;28;20026;-86
2022/04/25 12:18:52;;;;;;;2.70;1.52;;;;;;;;;;5134963;28;20016;-83
2022/04/25 12:21:18;;;;;;;2.78;1.40;;;;;;;;;;5129823;28;20055;-83
2022/04/25 12:23:51;;;;;;;2.50;1.38;;;;;;;;;;5140006;27;20043;-87
2022/04/25 12:26:20;;;;;;;4.18;2.15;;;;;;;;;;5135930;28;20024;-85
2022/04/25 12:28:51;;;;;;;2.67;1.58;;;;;;;;;;5140503;28;20041;-89
2022/04/25 12:31:19;;;;;;;3.33;1.60;;;;;;;;;;5138523;27;20023;-86
2022/04/25 12:33:45;;;;;;;2.47;1.95;;;;;;;;;;5139406;28;20488;-79
2022/04/25 12:36:24;;;;;;;2.45;1.42;;;;;;;;;;5140007;28;20023;-84
2022/04/25 12:39:00;;;;;;;3.58;1.65;;;;;;;;;;5139890;28;20019;-89
2022/04/25 12:41:32;;;;;;;1.60;1.40;;;;;;;;;;5127973;28;20004;-83
2022/04/25 12:43:58;;;;;;;2.95;1.88;;;;;;;;;;5112079;28;20024;-87
2022/04/25 12:46:36;;;;;;;2.70;1.70;;;;;;;;;;5107580;28;20056;-83
2022/04/25 12:49:03;;;;;;;2.05;1.60;;;;;;;;;;5124558;28;20504;-83
2022/04/25 12:51:33;;;;;;;2.67;1.60;;;;;;;;;;5110903;28;20490;-78
2022/04/25 12:53:58;;;;;;;2.42;1.50;;;;;;;;;;5095108;28;20492;-82
2022/04/25 12:56:28;;;;;;;3.75;1.75;;;;;;;;;;5104287;28;20062;-77
2022/04/25 12:58:53;;;;;;;1.50;1.30;;;;;;;;;;5111138;28;20016;-77
2022/04/25 13:01:32;;;;;;;3.20;1.90;;;;;;;;;;5099312;28;20090;-76
2022/04/25 13:04:03;;;;;;;2.33;1.55;;;;;;;;;;5097927;28;20479;-77
2022/04/25 13:06:29;;;;;;;4.40;2.10;;;;;;;;;;5103751;28;20008;-77
2022/04/25 13:08:55;;;;;;;2.42;1.70;;;;;;;;;;5092616;28;20507;-76
2022/04/25 13:11:20;;;;;;;1.92;1.50;;;;;;;;;;5095276;28;20004;-78
2022/04/25 13:13:46;;;;;;;1.70;1.40;;;;;;;;;;5101385;28;20346;-76
2022/04/25 13:16:11;;;;;;;7.53;1.50;;;;;;;;;;5101249;28;20495;-77
2022/04/25 13:18:36;;;;;;;2.13;1.50;;;;;;;;;;5100064;28;20253;-75
2022/04/25 13:21:03;;;;;;;1.97;1.50;;;;;;;;;;5107943;28;20262;-74
2022/04/25 13:23:30;;;;;;;2.42;1.60;;;;;;;;;;5091518;28;20264;-75
2022/04/25 13:25:55;;;;;;;2.78;1.70;;;;;;;;;;5095302;28;20099;-74
2022/04/25 13:28:20;;;;;;;3.53;1.70;;;;;;;;;;5100268;28;20472;-72
2022/04/25 13:30:45;;;;;;;2.75;1.75;;;;;;;;;;5089176;28;20360;-75
2022/04/25 13:33:11;;;;;;;2.45;1.60;;;;;;;;;;5098563;28;20028;-75
2022/04/25 13:35:36;;;;;;;2.97;1.80;;;;;;;;;;5088105;28;20032;-74
2022/04/25 13:38:01;;;;;;;3.35;2.00;;;;;;;;;;5097094;28;20298;-74
2022/04/25 13:40:28;;;;;;;3.00;2.00;;;;;;;;;;5104149;28;20015;-74
2022/04/25 13:42:53;;;;;;;4.57;1.88;;;;;;;;;;5089298;28;20039;-73
2022/04/25 13:45:19;;;;;;;3.05;2.13;;;;;;;;;;5089517;28;20473;-76
2022/04/25 13:47:44;;;;;;;5.50;2.13;;;;;;;;;;5089646;28;20043;-75
2022/04/25 13:50:10;;;;;;;2.75;1.90;;;;;;;;;;5089290;28;20445;-74
2022/04/25 13:52:35;;;;;;;3.80;2.28;;;;;;;;;;5088877;28;20027;-74
2022/04/25 13:55:01;;;;;;;3.42;2.00;;;;;;;;;;5093896;28;20099;-74
2022/04/25 13:57:26;;;;;;;3.33;1.83;;;;;;;;;;5089562;28;20027;-74
2022/04/25 13:59:51;;;;;;;3.83;2.42;;;;;;;;;;5093420;28;20028;-80
2022/04/25 14:05:01;;;;;;;4.93;3.03;;;;;;;;;;5116681;28;20030;-85
2022/04/25 14:07:26;;;;;;;3.00;2.08;;;;;;;;;;5115291;28;20027;-86
2022/04/25 14:09:51;;;;;;;3.13;2.00;;;;;;;;;;5119166;28;20024;-78
2022/04/25 14:12:18;;;;;;;5.38;2.08;;;;;;;;;;5119735;28;20036;-87
2022/04/25 14:14:43;;;;;;;3.63;2.30;;;;;;;;;;5121424;28;20014;-84
2022/04/25 14:17:09;;;;;;;2.85;2.13;;;;;;;;;;5110903;28;20059;-81
2022/04/25 14:19:34;;;;;;;4.10;2.40;;;;;;;;;;5116918;28;20441;-83
2022/04/25 14:21:59;;;;;;;57.35;29.80;;;;;;;;;;5118195;28;20260;-85
2022/04/25 14:24:25;;;;;;;6.30;3.63;;;;;;;;;;5113449;28;20012;-81
2022/04/25 14:26:51;;;;;;;3.92;2.75;;;;;;;;;;5112182;28;20012;-84
2022/04/25 14:29:17;;;;;;;3.58;2.20;;;;;;;;;;5115202;28;20048;-84
2022/04/25 14:31:42;;;;;;;3.90;2.58;;;;;;;;;;5108708;28;20028;-87
2022/04/25 14:34:07;;;;;;;3.55;2.20;;;;;;;;;;5114446;28;20019;-81
2022/04/25 14:36:33;;;;;;;3.53;2.40;;;;;;;;;;5116660;28;20087;-84
2022/04/25 14:38:58;;;;;;;5.22;3.50;;;;;;;;;;5112150;28;20026;-90
2022/04/25 14:41:23;;;;;;;3.88;2.72;;;;;;;;;;5104081;28;20024;-82
2022/04/25 14:43:48;;;;;;;9.03;3.83;;;;;;;;;;5109021;28;20031;-82
2022/04/25 14:46:14;;;;;;;5.20;2.55;;;;;;;;;;5112756;28;20274;-82
2022/04/25 14:48:39;;;;;;;4.90;2.60;;;;;;;;;;5120325;28;20016;-80
2022/04/25 14:56:35;;;;;;;5.28;2.67;;;;;;;;;;5104974;28;20101;-82
2022/04/25 14:59:01;;;;;;;7.53;2.80;;;;;;;;;;5120467;28;20020;-86
2022/04/25 15:01:27;;;;;;;5.70;2.90;;;;;;;;;;5116433;28;20020;-84
2022/04/25 15:03:53;;;;;;;4.93;2.53;;;;;;;;;;5113408;28;20032;-86
2022/04/25 15:06:18;;;;;;;5.55;2.78;;;;;;;;;;5117540;28;20093;-87
2022/04/25 15:08:43;;;;;;;6.40;2.85;;;;;;;;;;5107222;28;20023;-82
2022/04/25 15:11:09;;;;;;;4.80;3.08;;;;;;;;;;5110936;28;20052;-80
2022/04/25 15:13:34;;;;;;;4.10;2.60;;;;;;;;;;5101082;28;20008;-87
2022/04/25 15:16:01;;;;;;;4.10;2.53;;;;;;;;;;5114984;28;20285;-83
2022/04/25 15:18:27;;;;;;;4.03;2.47;;;;;;;;;;5106157;28;20670;-83
2022/04/25 15:20:53;;;;;;;3.93;2.37;;;;;;;;;;5113536;28;20054;-85
2022/04/25 15:23:18;;;;;;;4.50;2.40;;;;;;;;;;5112645;28;20253;-84
2022/04/25 15:25:43;;;;;;;3.72;2.45;;;;;;;;;;5113103;28;20451;-88
2022/04/25 15:28:09;;;;;;;3.35;2.45;;;;;;;;;;5112979;28;20012;-87
2022/04/25 15:30:34;;;;;;;3.38;2.15;;;;;;;;;;5109586;28;20019;-81
2022/04/25 15:33:02;;;;;;;4.32;2.30;;;;;;;;;;5099772;28;20027;-85